sensor_id;sensor_type;location;lat;lon;timestamp;P1;durP1;ratioP1;P2;durP2;ratioP2
41661;SDS011;27351;45.992;12.666;2023-02-01T00:01:26;37.80;;;19.07;;
41661;SDS011;27351;45.992;12.666;2023-02-01T00:03:51;41.53;;;20.90;;
41661;SDS011;27351;45.992;12.666;2023-02-01T00:06:17;41.92;;;22.23;;
41661;SDS011;27351;45.992;12.666;2023-02-01T00:08:42;40.97;;;20.70;;
41661;SDS011;27351;45.992;12.666;2023-02-01T00:11:09;36.33;;;19.02;;
41661;SDS011;27351;45.992;12.666;2023-02-01T00:13:35;39.78;;;20.88;;
41661;SDS011;27351;45.992;12.666;2023-02-01T00:16:10;36.60;;;20.13;;
41661;SDS011;27351;45.992;12.666;2023-02-01T00:18:37;38.30;;;20.10;;
41661;SDS011;27351;45.992;12.666;2023-02-01T00:21:02;33.47;;;18.05;;
41661;SDS011;27351;45.992;12.666;2023-02-01T00:23:31;35.65;;;18.85;;
41661;SDS011;27351;45.992;12.666;2023-02-01T00:25:59;35.40;;;17.67;;
41661;SDS011;27351;45.992;12.666;2023-02-01T00:28:25;36.30;;;19.17;;
41661;SDS011;27351;45.992;12.666;2023-02-01T00:31:00;36.60;;;18.98;;
41661;SDS011;27351;45.992;12.666;2023-02-01T00:33:26;36.25;;;18.13;;
41661;SDS011;27351;45.992;12.666;2023-02-01T00:35:56;36.53;;;18.05;;
41661;SDS011;27351;45.992;12.666;2023-02-01T00:38:21;35.05;;;17.70;;
41661;SDS011;27351;45.992;12.666;2023-02-01T00:40:47;32.17;;;16.53;;
41661;SDS011;27351;45.992;12.666;2023-02-01T00:43:12;38.13;;;18.20;;
41661;SDS011;27351;45.992;12.666;2023-02-01T00:45:38;33.23;;;16.70;;
41661;SDS011;27351;45.992;12.666;2023-02-01T00:48:03;31.00;;;15.95;;
41661;SDS011;27351;45.992;12.666;2023-02-01T00:50:29;31.27;;;15.65;;
41661;SDS011;27351;45.992;12.666;2023-02-01T00:52:55;32.88;;;16.70;;
41661;SDS011;27351;45.992;12.666;2023-02-01T00:55:20;32.37;;;17.40;;
41661;SDS011;27351;45.992;12.666;2023-02-01T00:57:46;32.77;;;15.93;;
41661;SDS011;27351;45.992;12.666;2023-02-01T01:00:11;29.37;;;15.53;;
41661;SDS011;27351;45.992;12.666;2023-02-01T01:02:37;33.35;;;16.25;;
41661;SDS011;27351;45.992;12.666;2023-02-01T01:05:02;32.70;;;16.00;;
41661;SDS011;27351;45.992;12.666;2023-02-01T01:07:28;30.13;;;15.25;;
41661;SDS011;27351;45.992;12.666;2023-02-01T01:09:54;31.67;;;15.30;;
41661;SDS011;27351;45.992;12.666;2023-02-01T01:12:19;33.40;;;15.83;;
41661;SDS011;27351;45.992;12.666;2023-02-01T01:14:45;28.77;;;14.73;;
41661;SDS011;27351;45.992;12.666;2023-02-01T01:17:10;35.43;;;15.90;;
41661;SDS011;27351;45.992;12.666;2023-02-01T01:19:37;33.88;;;15.93;;
41661;SDS011;27351;45.992;12.666;2023-02-01T01:22:02;28.57;;;15.50;;
41661;SDS011;27351;45.992;12.666;2023-02-01T01:24:28;28.73;;;14.95;;
41661;SDS011;27351;45.992;12.666;2023-02-01T01:26:53;31.05;;;15.40;;
41661;SDS011;27351;45.992;12.666;2023-02-01T01:29:19;29.27;;;15.38;;
41661;SDS011;27351;45.992;12.666;2023-02-01T01:31:44;28.88;;;15.18;;
41661;SDS011;27351;45.992;12.666;2023-02-01T01:34:10;30.98;;;14.68;;
41661;SDS011;27351;45.992;12.666;2023-02-01T01:36:35;30.77;;;14.80;;
41661;SDS011;27351;45.992;12.666;2023-02-01T01:39:01;32.93;;;16.27;;
41661;SDS011;27351;45.992;12.666;2023-02-01T01:41:28;32.67;;;15.50;;
41661;SDS011;27351;45.992;12.666;2023-02-01T01:46:25;31.77;;;15.63;;
41661;SDS011;27351;45.992;12.666;2023-02-01T01:49:13;32.97;;;15.15;;
41661;SDS011;27351;45.992;12.666;2023-02-01T01:51:38;31.17;;;16.13;;
41661;SDS011;27351;45.992;12.666;2023-02-01T01:56:33;28.65;;;14.63;;
41661;SDS011;27351;45.992;12.666;2023-02-01T01:59:00;32.10;;;15.05;;
41661;SDS011;27351;45.992;12.666;2023-02-01T02:01:26;29.77;;;14.80;;
41661;SDS011;27351;45.992;12.666;2023-02-01T02:03:52;29.75;;;14.95;;
41661;SDS011;27351;45.992;12.666;2023-02-01T02:08:53;30.08;;;15.35;;
41661;SDS011;27351;45.992;12.666;2023-02-01T02:11:19;29.90;;;15.90;;
41661;SDS011;27351;45.992;12.666;2023-02-01T02:13:46;28.73;;;16.17;;
41661;SDS011;27351;45.992;12.666;2023-02-01T02:16:17;27.70;;;14.97;;
41661;SDS011;27351;45.992;12.666;2023-02-01T02:21:17;26.30;;;13.77;;
41661;SDS011;27351;45.992;12.666;2023-02-01T02:26:38;30.25;;;14.95;;
41661;SDS011;27351;45.992;12.666;2023-02-01T02:36:44;26.55;;;14.07;;
41661;SDS011;27351;45.992;12.666;2023-02-01T02:47:27;29.48;;;14.13;;
41661;SDS011;27351;45.992;12.666;2023-02-01T02:53:07;30.88;;;15.25;;
41661;SDS011;27351;45.992;12.666;2023-02-01T02:55:54;27.27;;;13.97;;
41661;SDS011;27351;45.992;12.666;2023-02-01T02:58:39;33.92;;;15.65;;
41661;SDS011;27351;45.992;12.666;2023-02-01T03:01:25;31.45;;;14.82;;
41661;SDS011;27351;45.992;12.666;2023-02-01T03:04:09;27.95;;;14.73;;
41661;SDS011;27351;45.992;12.666;2023-02-01T03:06:40;29.33;;;14.52;;
41661;SDS011;27351;45.992;12.666;2023-02-01T03:09:08;33.78;;;14.98;;
41661;SDS011;27351;45.992;12.666;2023-02-01T03:11:35;31.27;;;14.60;;
41661;SDS011;27351;45.992;12.666;2023-02-01T03:14:20;31.95;;;15.13;;
41661;SDS011;27351;45.992;12.666;2023-02-01T03:16:48;30.35;;;15.98;;
41661;SDS011;27351;45.992;12.666;2023-02-01T03:21:44;30.67;;;15.43;;
41661;SDS011;27351;45.992;12.666;2023-02-01T03:24:12;30.60;;;15.43;;
41661;SDS011;27351;45.992;12.666;2023-02-01T03:26:41;30.65;;;16.15;;
41661;SDS011;27351;45.992;12.666;2023-02-01T03:29:11;32.60;;;14.73;;
41661;SDS011;27351;45.992;12.666;2023-02-01T03:31:41;35.38;;;16.50;;
41661;SDS011;27351;45.992;12.666;2023-02-01T03:34:06;30.85;;;15.50;;
41661;SDS011;27351;45.992;12.666;2023-02-01T03:37:07;34.08;;;16.67;;
41661;SDS011;27351;45.992;12.666;2023-02-01T03:41:58;29.98;;;15.57;;
41661;SDS011;27351;45.992;12.666;2023-02-01T03:44:26;35.25;;;16.48;;
41661;SDS011;27351;45.992;12.666;2023-02-01T03:46:56;31.88;;;16.25;;
41661;SDS011;27351;45.992;12.666;2023-02-01T03:49:25;31.13;;;16.42;;
41661;SDS011;27351;45.992;12.666;2023-02-01T03:51:51;30.13;;;16.02;;
41661;SDS011;27351;45.992;12.666;2023-02-01T03:54:18;35.92;;;17.08;;
41661;SDS011;27351;45.992;12.666;2023-02-01T03:56:44;32.42;;;16.40;;
41661;SDS011;27351;45.992;12.666;2023-02-01T03:59:12;33.65;;;17.52;;
41661;SDS011;27351;45.992;12.666;2023-02-01T04:01:38;34.28;;;17.55;;
41661;SDS011;27351;45.992;12.666;2023-02-01T04:04:03;31.40;;;16.67;;
41661;SDS011;27351;45.992;12.666;2023-02-01T04:06:30;35.97;;;16.83;;
41661;SDS011;27351;45.992;12.666;2023-02-01T04:08:59;32.65;;;16.30;;
41661;SDS011;27351;45.992;12.666;2023-02-01T04:11:25;32.08;;;17.10;;
41661;SDS011;27351;45.992;12.666;2023-02-01T04:13:53;36.05;;;18.40;;
41661;SDS011;27351;45.992;12.666;2023-02-01T04:16:18;38.00;;;17.60;;
41661;SDS011;27351;45.992;12.666;2023-02-01T04:18:44;33.27;;;16.90;;
41661;SDS011;27351;45.992;12.666;2023-02-01T04:21:09;35.53;;;18.13;;
41661;SDS011;27351;45.992;12.666;2023-02-01T04:23:35;36.50;;;17.67;;
41661;SDS011;27351;45.992;12.666;2023-02-01T04:26:02;36.93;;;18.00;;
41661;SDS011;27351;45.992;12.666;2023-02-01T04:28:28;32.45;;;17.67;;
41661;SDS011;27351;45.992;12.666;2023-02-01T04:30:54;38.77;;;18.77;;
41661;SDS011;27351;45.992;12.666;2023-02-01T04:33:20;32.83;;;17.33;;
41661;SDS011;27351;45.992;12.666;2023-02-01T04:35:45;40.70;;;19.70;;
41661;SDS011;27351;45.992;12.666;2023-02-01T04:38:12;33.95;;;18.75;;
41661;SDS011;27351;45.992;12.666;2023-02-01T04:40:37;36.88;;;18.30;;
41661;SDS011;27351;45.992;12.666;2023-02-01T04:43:03;34.85;;;18.83;;
41661;SDS011;27351;45.992;12.666;2023-02-01T04:45:29;36.00;;;18.58;;
41661;SDS011;27351;45.992;12.666;2023-02-01T04:47:54;36.30;;;18.33;;
41661;SDS011;27351;45.992;12.666;2023-02-01T04:50:20;37.30;;;19.42;;
41661;SDS011;27351;45.992;12.666;2023-02-01T04:52:45;39.78;;;20.27;;
41661;SDS011;27351;45.992;12.666;2023-02-01T04:55:11;44.22;;;19.90;;
41661;SDS011;27351;45.992;12.666;2023-02-01T04:57:38;36.45;;;20.10;;
41661;SDS011;27351;45.992;12.666;2023-02-01T05:00:06;40.70;;;22.00;;
41661;SDS011;27351;45.992;12.666;2023-02-01T05:02:31;43.05;;;20.98;;
41661;SDS011;27351;45.992;12.666;2023-02-01T05:04:57;43.27;;;21.67;;
41661;SDS011;27351;45.992;12.666;2023-02-01T05:07:23;45.30;;;21.07;;
41661;SDS011;27351;45.992;12.666;2023-02-01T05:09:48;41.03;;;21.03;;
41661;SDS011;27351;45.992;12.666;2023-02-01T05:12:14;40.90;;;19.67;;
41661;SDS011;27351;45.992;12.666;2023-02-01T05:14:58;42.67;;;20.65;;
41661;SDS011;27351;45.992;12.666;2023-02-01T05:17:23;40.90;;;21.07;;
41661;SDS011;27351;45.992;12.666;2023-02-01T05:19:49;39.07;;;20.83;;
41661;SDS011;27351;45.992;12.666;2023-02-01T05:22:14;43.83;;;21.23;;
41661;SDS011;27351;45.992;12.666;2023-02-01T05:24:40;38.25;;;21.75;;
41661;SDS011;27351;45.992;12.666;2023-02-01T05:27:05;38.15;;;20.65;;
41661;SDS011;27351;45.992;12.666;2023-02-01T05:29:31;41.75;;;21.08;;
41661;SDS011;27351;45.992;12.666;2023-02-01T05:31:56;39.83;;;20.38;;
41661;SDS011;27351;45.992;12.666;2023-02-01T05:34:22;39.10;;;19.98;;
41661;SDS011;27351;45.992;12.666;2023-02-01T05:36:47;44.10;;;21.50;;
41661;SDS011;27351;45.992;12.666;2023-02-01T05:39:13;46.00;;;23.30;;
41661;SDS011;27351;45.992;12.666;2023-02-01T05:41:39;45.73;;;22.53;;
41661;SDS011;27351;45.992;12.666;2023-02-01T05:44:04;44.67;;;23.00;;
41661;SDS011;27351;45.992;12.666;2023-02-01T05:46:33;46.10;;;23.67;;
41661;SDS011;27351;45.992;12.666;2023-02-01T05:48:59;44.83;;;23.88;;
41661;SDS011;27351;45.992;12.666;2023-02-01T05:51:24;41.70;;;21.90;;
41661;SDS011;27351;45.992;12.666;2023-02-01T05:53:50;43.23;;;22.00;;
41661;SDS011;27351;45.992;12.666;2023-02-01T05:56:15;45.63;;;23.40;;
41661;SDS011;27351;45.992;12.666;2023-02-01T05:58:41;47.90;;;24.27;;
41661;SDS011;27351;45.992;12.666;2023-02-01T06:01:06;46.83;;;22.90;;
41661;SDS011;27351;45.992;12.666;2023-02-01T06:03:32;44.40;;;22.43;;
41661;SDS011;27351;45.992;12.666;2023-02-01T06:05:58;41.35;;;20.77;;
41661;SDS011;27351;45.992;12.666;2023-02-01T06:08:23;43.30;;;22.17;;
41661;SDS011;27351;45.992;12.666;2023-02-01T06:10:59;49.00;;;23.52;;
41661;SDS011;27351;45.992;12.666;2023-02-01T06:13:24;44.70;;;22.17;;
41661;SDS011;27351;45.992;12.666;2023-02-01T06:15:50;46.70;;;22.80;;
41661;SDS011;27351;45.992;12.666;2023-02-01T06:18:16;47.65;;;22.00;;
41661;SDS011;27351;45.992;12.666;2023-02-01T06:20:42;48.53;;;22.08;;
41661;SDS011;27351;45.992;12.666;2023-02-01T06:23:07;40.23;;;21.87;;
41661;SDS011;27351;45.992;12.666;2023-02-01T06:25:33;42.10;;;21.77;;
41661;SDS011;27351;45.992;12.666;2023-02-01T06:28:01;47.30;;;23.47;;
41661;SDS011;27351;45.992;12.666;2023-02-01T06:30:27;43.78;;;21.25;;
41661;SDS011;27351;45.992;12.666;2023-02-01T06:32:53;39.47;;;20.52;;
41661;SDS011;27351;45.992;12.666;2023-02-01T06:35:19;45.60;;;21.90;;
41661;SDS011;27351;45.992;12.666;2023-02-01T06:37:44;41.72;;;21.70;;
41661;SDS011;27351;45.992;12.666;2023-02-01T06:40:10;46.78;;;21.80;;
41661;SDS011;27351;45.992;12.666;2023-02-01T06:42:36;42.70;;;21.35;;
41661;SDS011;27351;45.992;12.666;2023-02-01T06:45:02;46.28;;;23.25;;
41661;SDS011;27351;45.992;12.666;2023-02-01T06:47:28;43.67;;;22.83;;
41661;SDS011;27351;45.992;12.666;2023-02-01T06:49:53;44.53;;;22.90;;
41661;SDS011;27351;45.992;12.666;2023-02-01T06:52:19;45.33;;;23.03;;
41661;SDS011;27351;45.992;12.666;2023-02-01T06:54:44;42.07;;;20.97;;
41661;SDS011;27351;45.992;12.666;2023-02-01T06:57:10;42.03;;;22.38;;
41661;SDS011;27351;45.992;12.666;2023-02-01T06:59:36;38.13;;;20.10;;
41661;SDS011;27351;45.992;12.666;2023-02-01T07:02:01;36.95;;;20.02;;
41661;SDS011;27351;45.992;12.666;2023-02-01T07:04:27;44.17;;;21.80;;
41661;SDS011;27351;45.992;12.666;2023-02-01T07:06:53;37.93;;;20.60;;
41661;SDS011;27351;45.992;12.666;2023-02-01T07:09:18;41.57;;;21.27;;
41661;SDS011;27351;45.992;12.666;2023-02-01T07:11:44;42.22;;;21.60;;
41661;SDS011;27351;45.992;12.666;2023-02-01T07:14:09;43.00;;;22.45;;
41661;SDS011;27351;45.992;12.666;2023-02-01T07:16:35;47.00;;;24.52;;
41661;SDS011;27351;45.992;12.666;2023-02-01T07:19:01;42.37;;;21.43;;
41661;SDS011;27351;45.992;12.666;2023-02-01T07:21:27;45.53;;;22.70;;
41661;SDS011;27351;45.992;12.666;2023-02-01T07:23:53;48.65;;;24.73;;
41661;SDS011;27351;45.992;12.666;2023-02-01T07:26:19;61.55;;;28.27;;
41661;SDS011;27351;45.992;12.666;2023-02-01T07:28:45;76.27;;;35.70;;
41661;SDS011;27351;45.992;12.666;2023-02-01T07:31:13;56.45;;;28.35;;
41661;SDS011;27351;45.992;12.666;2023-02-01T07:33:40;47.83;;;23.48;;
41661;SDS011;27351;45.992;12.666;2023-02-01T07:36:07;43.77;;;23.20;;
41661;SDS011;27351;45.992;12.666;2023-02-01T07:38:33;42.33;;;22.67;;
41661;SDS011;27351;45.992;12.666;2023-02-01T07:40:59;42.05;;;21.70;;
41661;SDS011;27351;45.992;12.666;2023-02-01T07:43:25;48.28;;;22.13;;
41661;SDS011;27351;45.992;12.666;2023-02-01T07:45:52;43.17;;;22.42;;
41661;SDS011;27351;45.992;12.666;2023-02-01T07:48:17;54.03;;;26.92;;
41661;SDS011;27351;45.992;12.666;2023-02-01T07:50:43;63.43;;;30.93;;
41661;SDS011;27351;45.992;12.666;2023-02-01T07:53:08;52.03;;;25.05;;
41661;SDS011;27351;45.992;12.666;2023-02-01T07:55:37;45.63;;;22.70;;
41661;SDS011;27351;45.992;12.666;2023-02-01T07:58:02;41.08;;;21.90;;
41661;SDS011;27351;45.992;12.666;2023-02-01T08:00:28;43.80;;;22.27;;
41661;SDS011;27351;45.992;12.666;2023-02-01T08:03:12;44.22;;;21.98;;
41661;SDS011;27351;45.992;12.666;2023-02-01T08:05:37;41.90;;;22.10;;
41661;SDS011;27351;45.992;12.666;2023-02-01T08:08:03;44.97;;;22.43;;
41661;SDS011;27351;45.992;12.666;2023-02-01T08:10:29;41.50;;;22.83;;
41661;SDS011;27351;45.992;12.666;2023-02-01T08:12:58;44.90;;;22.48;;
41661;SDS011;27351;45.992;12.666;2023-02-01T08:15:23;40.75;;;21.15;;
41661;SDS011;27351;45.992;12.666;2023-02-01T08:17:50;41.80;;;22.47;;
41661;SDS011;27351;45.992;12.666;2023-02-01T08:20:16;43.42;;;22.27;;
41661;SDS011;27351;45.992;12.666;2023-02-01T08:22:42;43.90;;;22.38;;
41661;SDS011;27351;45.992;12.666;2023-02-01T08:25:07;43.60;;;24.23;;
41661;SDS011;27351;45.992;12.666;2023-02-01T08:27:33;44.17;;;23.37;;
41661;SDS011;27351;45.992;12.666;2023-02-01T08:29:59;44.08;;;24.00;;
41661;SDS011;27351;45.992;12.666;2023-02-01T08:32:25;48.03;;;24.52;;
41661;SDS011;27351;45.992;12.666;2023-02-01T08:34:50;42.83;;;23.00;;
41661;SDS011;27351;45.992;12.666;2023-02-01T08:37:16;42.38;;;22.63;;
41661;SDS011;27351;45.992;12.666;2023-02-01T08:39:42;43.85;;;23.20;;
41661;SDS011;27351;45.992;12.666;2023-02-01T08:42:09;44.10;;;22.42;;
41661;SDS011;27351;45.992;12.666;2023-02-01T08:44:53;40.97;;;22.43;;
41661;SDS011;27351;45.992;12.666;2023-02-01T08:47:19;41.80;;;22.90;;
41661;SDS011;27351;45.992;12.666;2023-02-01T08:49:44;45.97;;;24.20;;
41661;SDS011;27351;45.992;12.666;2023-02-01T08:52:10;51.22;;;24.70;;
41661;SDS011;27351;45.992;12.666;2023-02-01T08:54:36;42.95;;;25.55;;
41661;SDS011;27351;45.992;12.666;2023-02-01T08:57:02;48.17;;;25.47;;
41661;SDS011;27351;45.992;12.666;2023-02-01T08:59:27;49.03;;;26.88;;
41661;SDS011;27351;45.992;12.666;2023-02-01T09:01:53;48.95;;;25.33;;
41661;SDS011;27351;45.992;12.666;2023-02-01T09:04:19;45.92;;;24.80;;
41661;SDS011;27351;45.992;12.666;2023-02-01T09:06:45;48.77;;;25.30;;
41661;SDS011;27351;45.992;12.666;2023-02-01T09:09:10;45.13;;;22.33;;
41661;SDS011;27351;45.992;12.666;2023-02-01T09:11:36;49.23;;;24.37;;
41661;SDS011;27351;45.992;12.666;2023-02-01T09:14:01;42.30;;;23.87;;
41661;SDS011;27351;45.992;12.666;2023-02-01T09:16:27;45.88;;;24.25;;
41661;SDS011;27351;45.992;12.666;2023-02-01T09:18:53;41.17;;;22.73;;
41661;SDS011;27351;45.992;12.666;2023-02-01T09:21:18;43.67;;;21.80;;
41661;SDS011;27351;45.992;12.666;2023-02-01T09:23:44;46.42;;;23.27;;
41661;SDS011;27351;45.992;12.666;2023-02-01T09:26:10;46.70;;;22.60;;
41661;SDS011;27351;45.992;12.666;2023-02-01T09:28:37;44.00;;;23.20;;
41661;SDS011;27351;45.992;12.666;2023-02-01T09:31:02;39.40;;;23.02;;
41661;SDS011;27351;45.992;12.666;2023-02-01T09:33:28;41.10;;;22.25;;
41661;SDS011;27351;45.992;12.666;2023-02-01T09:35:57;42.60;;;23.02;;
41661;SDS011;27351;45.992;12.666;2023-02-01T09:38:23;43.35;;;23.30;;
41661;SDS011;27351;45.992;12.666;2023-02-01T09:40:50;45.63;;;24.55;;
41661;SDS011;27351;45.992;12.666;2023-02-01T09:43:19;47.58;;;24.88;;
41661;SDS011;27351;45.992;12.666;2023-02-01T09:48:16;43.75;;;23.85;;
41661;SDS011;27351;45.992;12.666;2023-02-01T09:50:48;48.08;;;24.00;;
41661;SDS011;27351;45.992;12.666;2023-02-01T09:53:34;45.05;;;24.77;;
41661;SDS011;27351;45.992;12.666;2023-02-01T09:56:10;48.92;;;25.23;;
41661;SDS011;27351;45.992;12.666;2023-02-01T09:58:38;49.75;;;25.77;;
41661;SDS011;27351;45.992;12.666;2023-02-01T10:01:08;49.13;;;26.13;;
41661;SDS011;27351;45.992;12.666;2023-02-01T10:03:35;53.43;;;26.57;;
41661;SDS011;27351;45.992;12.666;2023-02-01T10:06:06;49.70;;;25.77;;
41661;SDS011;27351;45.992;12.666;2023-02-01T10:09:01;53.47;;;27.05;;
41661;SDS011;27351;45.992;12.666;2023-02-01T10:22:02;60.90;;;30.77;;
41661;SDS011;27351;45.992;12.666;2023-02-01T10:24:29;55.38;;;30.20;;
41661;SDS011;27351;45.992;12.666;2023-02-01T10:27:01;60.72;;;31.00;;
41661;SDS011;27351;45.992;12.666;2023-02-01T10:29:31;58.63;;;30.60;;
41661;SDS011;27351;45.992;12.666;2023-02-01T10:31:58;59.20;;;29.88;;
41661;SDS011;27351;45.992;12.666;2023-02-01T10:34:28;61.20;;;31.40;;
41661;SDS011;27351;45.992;12.666;2023-02-01T10:37:07;60.85;;;31.35;;
41661;SDS011;27351;45.992;12.666;2023-02-01T10:39:35;61.33;;;31.30;;
41661;SDS011;27351;45.992;12.666;2023-02-01T10:42:02;58.15;;;31.17;;
41661;SDS011;27351;45.992;12.666;2023-02-01T10:44:28;62.55;;;32.78;;
41661;SDS011;27351;45.992;12.666;2023-02-01T10:46:54;61.60;;;32.80;;
41661;SDS011;27351;45.992;12.666;2023-02-01T10:49:34;60.50;;;32.70;;
41661;SDS011;27351;45.992;12.666;2023-02-01T10:52:06;63.50;;;31.27;;
41661;SDS011;27351;45.992;12.666;2023-02-01T10:54:36;64.97;;;32.88;;
41661;SDS011;27351;45.992;12.666;2023-02-01T10:57:06;60.15;;;31.70;;
41661;SDS011;27351;45.992;12.666;2023-02-01T10:59:32;64.40;;;33.73;;
41661;SDS011;27351;45.992;12.666;2023-02-01T11:02:02;61.10;;;31.92;;
41661;SDS011;27351;45.992;12.666;2023-02-01T11:04:33;68.85;;;34.67;;
41661;SDS011;27351;45.992;12.666;2023-02-01T11:07:07;60.33;;;32.80;;
41661;SDS011;27351;45.992;12.666;2023-02-01T11:09:35;61.25;;;31.95;;
41661;SDS011;27351;45.992;12.666;2023-02-01T11:12:03;62.20;;;30.75;;
41661;SDS011;27351;45.992;12.666;2023-02-01T11:16:58;58.13;;;31.27;;
41661;SDS011;27351;45.992;12.666;2023-02-01T11:19:25;61.53;;;32.55;;
41661;SDS011;27351;45.992;12.666;2023-02-01T11:21:51;59.53;;;31.13;;
41661;SDS011;27351;45.992;12.666;2023-02-01T11:24:38;58.42;;;30.73;;
41661;SDS011;27351;45.992;12.666;2023-02-01T11:27:05;59.85;;;32.15;;
41661;SDS011;27351;45.992;12.666;2023-02-01T11:29:44;60.75;;;32.35;;
41661;SDS011;27351;45.992;12.666;2023-02-01T11:32:12;58.00;;;29.77;;
41661;SDS011;27351;45.992;12.666;2023-02-01T11:34:45;58.28;;;31.45;;
41661;SDS011;27351;45.992;12.666;2023-02-01T11:37:31;56.38;;;29.48;;
41661;SDS011;27351;45.992;12.666;2023-02-01T11:39:59;55.63;;;30.77;;
41661;SDS011;27351;45.992;12.666;2023-02-01T11:42:25;55.35;;;30.80;;
41661;SDS011;27351;45.992;12.666;2023-02-01T11:44:51;60.03;;;30.33;;
41661;SDS011;27351;45.992;12.666;2023-02-01T11:47:39;55.43;;;29.30;;
41661;SDS011;27351;45.992;12.666;2023-02-01T11:50:11;55.93;;;29.33;;
41661;SDS011;27351;45.992;12.666;2023-02-01T11:58:26;53.35;;;26.65;;
41661;SDS011;27351;45.992;12.666;2023-02-01T12:16:48;57.58;;;29.00;;
41661;SDS011;27351;45.992;12.666;2023-02-01T12:24:51;51.00;;;28.33;;
41661;SDS011;27351;45.992;12.666;2023-02-01T12:34:26;55.63;;;28.23;;
41661;SDS011;27351;45.992;12.666;2023-02-01T12:37:01;50.60;;;26.02;;
41661;SDS011;27351;45.992;12.666;2023-02-01T12:39:34;49.22;;;27.13;;
41661;SDS011;27351;45.992;12.666;2023-02-01T12:42:09;52.55;;;27.58;;
41661;SDS011;27351;45.992;12.666;2023-02-01T12:47:18;48.50;;;25.90;;
41661;SDS011;27351;45.992;12.666;2023-02-01T12:49:54;52.80;;;27.25;;
41661;SDS011;27351;45.992;12.666;2023-02-01T12:57:49;48.55;;;26.20;;
41661;SDS011;27351;45.992;12.666;2023-02-01T13:00:20;51.33;;;25.83;;
41661;SDS011;27351;45.992;12.666;2023-02-01T13:03:10;53.85;;;26.52;;
41661;SDS011;27351;45.992;12.666;2023-02-01T13:05:48;50.40;;;26.48;;
41661;SDS011;27351;45.992;12.666;2023-02-01T13:08:17;48.85;;;26.00;;
41661;SDS011;27351;45.992;12.666;2023-02-01T13:15:49;51.05;;;25.65;;
41661;SDS011;27351;45.992;12.666;2023-02-01T13:18:19;47.08;;;25.77;;
41661;SDS011;27351;45.992;12.666;2023-02-01T13:23:26;51.23;;;26.77;;
41661;SDS011;27351;45.992;12.666;2023-02-01T13:25:53;48.38;;;25.75;;
41661;SDS011;27351;45.992;12.666;2023-02-01T13:43:38;51.07;;;25.40;;
41661;SDS011;27351;45.992;12.666;2023-02-01T13:46:04;51.60;;;25.55;;
41661;SDS011;27351;45.992;12.666;2023-02-01T13:48:41;48.75;;;24.90;;
41661;SDS011;27351;45.992;12.666;2023-02-01T13:51:11;49.78;;;26.60;;
41661;SDS011;27351;45.992;12.666;2023-02-01T13:53:37;46.93;;;25.87;;
41661;SDS011;27351;45.992;12.666;2023-02-01T13:58:38;54.13;;;26.60;;
41661;SDS011;27351;45.992;12.666;2023-02-01T14:03:58;49.53;;;26.03;;
41661;SDS011;27351;45.992;12.666;2023-02-01T14:16:43;48.05;;;25.75;;
41661;SDS011;27351;45.992;12.666;2023-02-01T14:19:30;49.55;;;26.02;;
41661;SDS011;27351;45.992;12.666;2023-02-01T14:21:58;51.58;;;25.90;;
41661;SDS011;27351;45.992;12.666;2023-02-01T14:24:27;49.95;;;26.48;;
41661;SDS011;27351;45.992;12.666;2023-02-01T14:26:54;50.28;;;26.58;;
41661;SDS011;27351;45.992;12.666;2023-02-01T14:34:32;51.97;;;27.60;;
41661;SDS011;27351;45.992;12.666;2023-02-01T14:37:01;52.05;;;27.30;;
41661;SDS011;27351;45.992;12.666;2023-02-01T14:39:32;50.92;;;27.10;;
41661;SDS011;27351;45.992;12.666;2023-02-01T14:42:02;49.38;;;26.27;;
41661;SDS011;27351;45.992;12.666;2023-02-01T14:44:30;50.22;;;27.60;;
41661;SDS011;27351;45.992;12.666;2023-02-01T14:47:07;50.33;;;26.98;;
41661;SDS011;27351;45.992;12.666;2023-02-01T14:50:35;50.50;;;26.38;;
41661;SDS011;27351;45.992;12.666;2023-02-01T14:52:33;50.75;;;26.73;;
41661;SDS011;27351;45.992;12.666;2023-02-01T14:55:01;49.03;;;26.40;;
41661;SDS011;27351;45.992;12.666;2023-02-01T14:57:30;45.92;;;24.75;;
41661;SDS011;27351;45.992;12.666;2023-02-01T15:00:05;50.92;;;25.33;;
41661;SDS011;27351;45.992;12.666;2023-02-01T15:02:31;48.58;;;26.05;;
41661;SDS011;27351;45.992;12.666;2023-02-01T15:04:59;53.75;;;26.38;;
41661;SDS011;27351;45.992;12.666;2023-02-01T15:07:25;48.97;;;25.47;;
41661;SDS011;27351;45.992;12.666;2023-02-01T15:09:52;48.85;;;24.65;;
41661;SDS011;27351;45.992;12.666;2023-02-01T15:12:22;49.10;;;25.50;;
41661;SDS011;27351;45.992;12.666;2023-02-01T15:17:36;47.80;;;26.08;;
41661;SDS011;27351;45.992;12.666;2023-02-01T15:20:04;53.17;;;27.02;;
41661;SDS011;27351;45.992;12.666;2023-02-01T15:22:37;49.17;;;25.58;;
41661;SDS011;27351;45.992;12.666;2023-02-01T15:25:02;55.55;;;27.52;;
41661;SDS011;27351;45.992;12.666;2023-02-01T15:27:28;50.03;;;27.57;;
41661;SDS011;27351;45.992;12.666;2023-02-01T15:29:54;52.10;;;27.02;;
41661;SDS011;27351;45.992;12.666;2023-02-01T15:32:29;49.83;;;25.73;;
41661;SDS011;27351;45.992;12.666;2023-02-01T15:34:58;48.78;;;26.25;;
41661;SDS011;27351;45.992;12.666;2023-02-01T15:37:26;57.08;;;29.08;;
41661;SDS011;27351;45.992;12.666;2023-02-01T15:42:49;54.53;;;27.40;;
41661;SDS011;27351;45.992;12.666;2023-02-01T15:45:18;56.10;;;28.38;;
41661;SDS011;27351;45.992;12.666;2023-02-01T15:47:46;55.63;;;26.48;;
41661;SDS011;27351;45.992;12.666;2023-02-01T15:50:14;50.50;;;26.42;;
41661;SDS011;27351;45.992;12.666;2023-02-01T15:52:40;56.53;;;28.45;;
41661;SDS011;27351;45.992;12.666;2023-02-01T15:55:52;50.25;;;26.20;;
41661;SDS011;27351;45.992;12.666;2023-02-01T15:57:52;53.20;;;27.90;;
41661;SDS011;27351;45.992;12.666;2023-02-01T16:02:55;58.72;;;30.33;;
41661;SDS011;27351;45.992;12.666;2023-02-01T16:05:33;58.37;;;29.40;;
41661;SDS011;27351;45.992;12.666;2023-02-01T16:08:10;59.22;;;29.70;;
41661;SDS011;27351;45.992;12.666;2023-02-01T16:10:39;51.17;;;26.73;;
41661;SDS011;27351;45.992;12.666;2023-02-01T16:13:06;56.63;;;28.60;;
41661;SDS011;27351;45.992;12.666;2023-02-01T16:15:32;61.77;;;28.17;;
41661;SDS011;27351;45.992;12.666;2023-02-01T16:17:58;54.00;;;27.70;;
41661;SDS011;27351;45.992;12.666;2023-02-01T16:20:23;52.53;;;28.08;;
41661;SDS011;27351;45.992;12.666;2023-02-01T16:22:49;57.92;;;28.75;;
41661;SDS011;27351;45.992;12.666;2023-02-01T16:25:15;53.55;;;28.35;;
41661;SDS011;27351;45.992;12.666;2023-02-01T16:27:40;54.65;;;28.15;;
41661;SDS011;27351;45.992;12.666;2023-02-01T16:30:06;56.83;;;26.40;;
41661;SDS011;27351;45.992;12.666;2023-02-01T16:32:35;57.05;;;28.52;;
41661;SDS011;27351;45.992;12.666;2023-02-01T16:35:04;59.60;;;30.83;;
41661;SDS011;27351;45.992;12.666;2023-02-01T16:37:30;63.23;;;33.03;;
41661;SDS011;27351;45.992;12.666;2023-02-01T16:39:57;59.80;;;32.72;;
41661;SDS011;27351;45.992;12.666;2023-02-01T16:42:23;58.83;;;30.83;;